sensor_id;sensor_type;location;lat;lon;timestamp;pressure;altitude;pressure_sealevel;temperature
37536;BMP180;23379;51.554;6.736;2023-03-01T00:01:05;102546.00;;;0.10
37536;BMP180;23379;51.554;6.736;2023-03-01T00:03:31;102527.00;;;0.10
37536;BMP180;23379;51.554;6.736;2023-03-01T00:05:57;102538.00;;;-0.10
37536;BMP180;23379;51.554;6.736;2023-03-01T00:08:22;102536.00;;;0.00
37536;BMP180;23379;51.554;6.736;2023-03-01T00:10:48;102537.00;;;-0.30
37536;BMP180;23379;51.554;6.736;2023-03-01T00:13:13;102526.00;;;-0.10
37536;BMP180;23379;51.554;6.736;2023-03-01T00:15:39;102534.00;;;-0.20
37536;BMP180;23379;51.554;6.736;2023-03-01T00:18:05;102515.00;;;-0.20
37536;BMP180;23379;51.554;6.736;2023-03-01T00:20:30;102503.00;;;0.00
37536;BMP180;23379;51.554;6.736;2023-03-01T00:22:56;102513.00;;;-0.10
37536;BMP180;23379;51.554;6.736;2023-03-01T00:25:21;102512.00;;;-0.20
37536;BMP180;23379;51.554;6.736;2023-03-01T00:27:47;102501.00;;;-0.10
37536;BMP180;23379;51.554;6.736;2023-03-01T00:30:14;102512.00;;;-0.10
37536;BMP180;23379;51.554;6.736;2023-03-01T00:32:39;102513.00;;;-0.10
37536;BMP180;23379;51.554;6.736;2023-03-01T00:35:05;102512.00;;;-0.10
37536;BMP180;23379;51.554;6.736;2023-03-01T00:37:31;102509.00;;;-0.10
37536;BMP180;23379;51.554;6.736;2023-03-01T00:39:56;102480.00;;;-0.10
37536;BMP180;23379;51.554;6.736;2023-03-01T00:42:21;102508.00;;;-0.10
37536;BMP180;23379;51.554;6.736;2023-03-01T00:44:47;102491.00;;;-0.20
37536;BMP180;23379;51.554;6.736;2023-03-01T00:47:12;102489.00;;;-0.20
37536;BMP180;23379;51.554;6.736;2023-03-01T00:49:39;102510.00;;;-0.30
37536;BMP180;23379;51.554;6.736;2023-03-01T00:52:04;102484.00;;;-0.30
37536;BMP180;23379;51.554;6.736;2023-03-01T00:54:30;102489.00;;;-0.40
37536;BMP180;23379;51.554;6.736;2023-03-01T00:56:55;102498.00;;;-0.30
37536;BMP180;23379;51.554;6.736;2023-03-01T00:59:21;102491.00;;;-0.50
37536;BMP180;23379;51.554;6.736;2023-03-01T01:01:46;102479.00;;;-0.40
37536;BMP180;23379;51.554;6.736;2023-03-01T01:04:12;102494.00;;;-0.50
37536;BMP180;23379;51.554;6.736;2023-03-01T01:06:40;102463.00;;;-0.60
37536;BMP180;23379;51.554;6.736;2023-03-01T01:09:08;102488.00;;;-0.40
37536;BMP180;23379;51.554;6.736;2023-03-01T01:11:34;102491.00;;;-0.60
37536;BMP180;23379;51.554;6.736;2023-03-01T01:14:01;102472.00;;;-0.50
37536;BMP180;23379;51.554;6.736;2023-03-01T01:16:28;102488.00;;;-0.50
37536;BMP180;23379;51.554;6.736;2023-03-01T01:18:54;102472.00;;;-0.50
37536;BMP180;23379;51.554;6.736;2023-03-01T01:21:22;102490.00;;;-0.50
37536;BMP180;23379;51.554;6.736;2023-03-01T01:23:48;102468.00;;;-0.50
37536;BMP180;23379;51.554;6.736;2023-03-01T01:28:43;102458.00;;;-0.70
37536;BMP180;23379;51.554;6.736;2023-03-01T01:31:09;102454.00;;;-0.60
37536;BMP180;23379;51.554;6.736;2023-03-01T01:33:36;102448.00;;;-0.70
37536;BMP180;23379;51.554;6.736;2023-03-01T01:36:03;102447.00;;;-0.70
37536;BMP180;23379;51.554;6.736;2023-03-01T01:38:28;102440.00;;;-0.70
37536;BMP180;23379;51.554;6.736;2023-03-01T01:40:54;102427.00;;;-0.80
37536;BMP180;23379;51.554;6.736;2023-03-01T01:43:25;102446.00;;;-0.70
37536;BMP180;23379;51.554;6.736;2023-03-01T01:45:55;102434.00;;;-0.80
37536;BMP180;23379;51.554;6.736;2023-03-01T01:48:23;102445.00;;;-0.90
37536;BMP180;23379;51.554;6.736;2023-03-01T01:50:55;102423.00;;;-0.90
37536;BMP180;23379;51.554;6.736;2023-03-01T01:53:22;102430.00;;;-0.90
37536;BMP180;23379;51.554;6.736;2023-03-01T01:55:53;102438.00;;;-1.10
37536;BMP180;23379;51.554;6.736;2023-03-01T01:58:21;102407.00;;;-1.10
37536;BMP180;23379;51.554;6.736;2023-03-01T02:00:47;102443.00;;;-1.10
37536;BMP180;23379;51.554;6.736;2023-03-01T02:03:15;102442.00;;;-1.10
37536;BMP180;23379;51.554;6.736;2023-03-01T02:08:11;102437.00;;;-1.30
37536;BMP180;23379;51.554;6.736;2023-03-01T02:10:38;102442.00;;;-1.60
37536;BMP180;23379;51.554;6.736;2023-03-01T02:13:04;102445.00;;;-1.60
37536;BMP180;23379;51.554;6.736;2023-03-01T02:15:36;102435.00;;;-1.40
37536;BMP180;23379;51.554;6.736;2023-03-01T02:18:05;102426.00;;;-1.40
37536;BMP180;23379;51.554;6.736;2023-03-01T02:23:03;102414.00;;;-1.30
37536;BMP180;23379;51.554;6.736;2023-03-01T02:25:36;102412.00;;;-1.50
37536;BMP180;23379;51.554;6.736;2023-03-01T02:30:54;102397.00;;;-1.40
37536;BMP180;23379;51.554;6.736;2023-03-01T02:33:49;102400.00;;;-1.40
37536;BMP180;23379;51.554;6.736;2023-03-01T02:36:35;102408.00;;;-1.60
37536;BMP180;23379;51.554;6.736;2023-03-01T02:39:03;102382.00;;;-1.60
37536;BMP180;23379;51.554;6.736;2023-03-01T02:41:33;102384.00;;;-1.40
37536;BMP180;23379;51.554;6.736;2023-03-01T02:43:59;102398.00;;;-1.60
37536;BMP180;23379;51.554;6.736;2023-03-01T02:46:25;102433.00;;;-1.60
37536;BMP180;23379;51.554;6.736;2023-03-01T02:48:53;102432.00;;;-1.50
37536;BMP180;23379;51.554;6.736;2023-03-01T02:54:21;102422.00;;;-1.60
37536;BMP180;23379;51.554;6.736;2023-03-01T02:56:49;102416.00;;;-1.60
37536;BMP180;23379;51.554;6.736;2023-03-01T02:59:18;102416.00;;;-1.50
37536;BMP180;23379;51.554;6.736;2023-03-01T03:01:44;102431.00;;;-1.50
37536;BMP180;23379;51.554;6.736;2023-03-01T03:04:14;102432.00;;;-1.50
37536;BMP180;23379;51.554;6.736;2023-03-01T03:06:46;102427.00;;;-1.70
37536;BMP180;23379;51.554;6.736;2023-03-01T03:09:13;102421.00;;;-1.70
37536;BMP180;23379;51.554;6.736;2023-03-01T03:11:39;102434.00;;;-1.60
37536;BMP180;23379;51.554;6.736;2023-03-01T03:14:07;102384.00;;;-1.50
37536;BMP180;23379;51.554;6.736;2023-03-01T03:16:42;102410.00;;;-1.50
37536;BMP180;23379;51.554;6.736;2023-03-01T03:19:09;102423.00;;;-1.50
37536;BMP180;23379;51.554;6.736;2023-03-01T03:21:34;102407.00;;;-1.70
37536;BMP180;23379;51.554;6.736;2023-03-01T03:24:00;102412.00;;;-1.60
37536;BMP180;23379;51.554;6.736;2023-03-01T03:26:26;102393.00;;;-1.70
37536;BMP180;23379;51.554;6.736;2023-03-01T03:28:51;102412.00;;;-1.60
37536;BMP180;23379;51.554;6.736;2023-03-01T03:31:17;102417.00;;;-1.60
37536;BMP180;23379;51.554;6.736;2023-03-01T03:33:42;102412.00;;;-1.70
37536;BMP180;23379;51.554;6.736;2023-03-01T03:36:08;102396.00;;;-1.70
37536;BMP180;23379;51.554;6.736;2023-03-01T03:38:38;102388.00;;;-1.60
37536;BMP180;23379;51.554;6.736;2023-03-01T03:41:07;102397.00;;;-1.60
37536;BMP180;23379;51.554;6.736;2023-03-01T03:43:35;102410.00;;;-1.60
37536;BMP180;23379;51.554;6.736;2023-03-01T03:46:01;102408.00;;;-1.70
37536;BMP180;23379;51.554;6.736;2023-03-01T03:48:34;102411.00;;;-1.80
37536;BMP180;23379;51.554;6.736;2023-03-01T03:51:00;102407.00;;;-1.80
37536;BMP180;23379;51.554;6.736;2023-03-01T03:53:27;102400.00;;;-1.60
37536;BMP180;23379;51.554;6.736;2023-03-01T03:55:54;102395.00;;;-1.80
37536;BMP180;23379;51.554;6.736;2023-03-01T03:58:21;102397.00;;;-1.70
37536;BMP180;23379;51.554;6.736;2023-03-01T04:00:49;102377.00;;;-1.70
37536;BMP180;23379;51.554;6.736;2023-03-01T04:03:16;102389.00;;;-1.70
37536;BMP180;23379;51.554;6.736;2023-03-01T04:05:44;102395.00;;;-1.70
37536;BMP180;23379;51.554;6.736;2023-03-01T04:08:10;102396.00;;;-1.90
37536;BMP180;23379;51.554;6.736;2023-03-01T04:10:41;102387.00;;;-1.90
37536;BMP180;23379;51.554;6.736;2023-03-01T04:13:12;102360.00;;;-2.10
37536;BMP180;23379;51.554;6.736;2023-03-01T04:15:38;102375.00;;;-1.90
37536;BMP180;23379;51.554;6.736;2023-03-01T04:18:04;102359.00;;;-2.10
37536;BMP180;23379;51.554;6.736;2023-03-01T04:20:33;102376.00;;;-2.00
37536;BMP180;23379;51.554;6.736;2023-03-01T04:23:05;102372.00;;;-2.00
37536;BMP180;23379;51.554;6.736;2023-03-01T04:25:58;102348.00;;;-2.30
37536;BMP180;23379;51.554;6.736;2023-03-01T04:28:29;102366.00;;;-2.40
37536;BMP180;23379;51.554;6.736;2023-03-01T04:30:56;102376.00;;;-2.30
37536;BMP180;23379;51.554;6.736;2023-03-01T04:33:23;102389.00;;;-2.20
37536;BMP180;23379;51.554;6.736;2023-03-01T04:35:48;102365.00;;;-2.30
37536;BMP180;23379;51.554;6.736;2023-03-01T04:38:15;102369.00;;;-2.30
37536;BMP180;23379;51.554;6.736;2023-03-01T04:40:40;102356.00;;;-2.30
37536;BMP180;23379;51.554;6.736;2023-03-01T04:43:08;102347.00;;;-2.20
37536;BMP180;23379;51.554;6.736;2023-03-01T04:45:34;102366.00;;;-2.30
37536;BMP180;23379;51.554;6.736;2023-03-01T04:47:59;102368.00;;;-2.20
37536;BMP180;23379;51.554;6.736;2023-03-01T04:50:25;102383.00;;;-2.20
37536;BMP180;23379;51.554;6.736;2023-03-01T04:52:50;102370.00;;;-2.30
37536;BMP180;23379;51.554;6.736;2023-03-01T04:55:16;102332.00;;;-2.20
37536;BMP180;23379;51.554;6.736;2023-03-01T04:57:41;102347.00;;;-2.30
37536;BMP180;23379;51.554;6.736;2023-03-01T05:00:10;102355.00;;;-2.50
37536;BMP180;23379;51.554;6.736;2023-03-01T05:02:56;102363.00;;;-2.40
37536;BMP180;23379;51.554;6.736;2023-03-01T05:05:27;102348.00;;;-2.40
37536;BMP180;23379;51.554;6.736;2023-03-01T05:07:58;102358.00;;;-2.50
37536;BMP180;23379;51.554;6.736;2023-03-01T05:10:24;102316.00;;;-2.50
37536;BMP180;23379;51.554;6.736;2023-03-01T05:12:50;102333.00;;;-2.70
37536;BMP180;23379;51.554;6.736;2023-03-01T05:15:17;102325.00;;;-2.40
37536;BMP180;23379;51.554;6.736;2023-03-01T05:17:43;102329.00;;;-2.30
37536;BMP180;23379;51.554;6.736;2023-03-01T05:20:09;102330.00;;;-2.50
37536;BMP180;23379;51.554;6.736;2023-03-01T05:22:35;102358.00;;;-2.70
37536;BMP180;23379;51.554;6.736;2023-03-01T05:25:01;102320.00;;;-2.60
37536;BMP180;23379;51.554;6.736;2023-03-01T05:27:27;102331.00;;;-2.60
37536;BMP180;23379;51.554;6.736;2023-03-01T05:29:52;102337.00;;;-2.50
37536;BMP180;23379;51.554;6.736;2023-03-01T05:32:17;102320.00;;;-2.70
37536;BMP180;23379;51.554;6.736;2023-03-01T05:34:43;102279.00;;;-2.80
37536;BMP180;23379;51.554;6.736;2023-03-01T05:37:11;102315.00;;;-3.00
37536;BMP180;23379;51.554;6.736;2023-03-01T05:39:37;102279.00;;;-2.90
37536;BMP180;23379;51.554;6.736;2023-03-01T05:42:02;102326.00;;;-2.80
37536;BMP180;23379;51.554;6.736;2023-03-01T05:44:28;102340.00;;;-2.80
37536;BMP180;23379;51.554;6.736;2023-03-01T05:46:54;102304.00;;;-2.70
37536;BMP180;23379;51.554;6.736;2023-03-01T05:49:20;102347.00;;;-2.60
37536;BMP180;23379;51.554;6.736;2023-03-01T05:51:50;102286.00;;;-2.70
37536;BMP180;23379;51.554;6.736;2023-03-01T05:54:17;102303.00;;;-2.80
37536;BMP180;23379;51.554;6.736;2023-03-01T05:56:43;102332.00;;;-2.70
37536;BMP180;23379;51.554;6.736;2023-03-01T05:59:08;102308.00;;;-2.80
37536;BMP180;23379;51.554;6.736;2023-03-01T06:01:35;102345.00;;;-2.70
37536;BMP180;23379;51.554;6.736;2023-03-01T06:04:01;102309.00;;;-2.50
37536;BMP180;23379;51.554;6.736;2023-03-01T06:06:27;102291.00;;;-2.60
37536;BMP180;23379;51.554;6.736;2023-03-01T06:08:53;102330.00;;;-2.60
37536;BMP180;23379;51.554;6.736;2023-03-01T06:11:19;102319.00;;;-2.50
37536;BMP180;23379;51.554;6.736;2023-03-01T06:13:45;102349.00;;;-2.20
37536;BMP180;23379;51.554;6.736;2023-03-01T06:16:11;102329.00;;;-2.70
37536;BMP180;23379;51.554;6.736;2023-03-01T06:18:37;102351.00;;;-2.30
37536;BMP180;23379;51.554;6.736;2023-03-01T06:21:03;102336.00;;;-2.10
37536;BMP180;23379;51.554;6.736;2023-03-01T06:23:28;102297.00;;;-2.30
37536;BMP180;23379;51.554;6.736;2023-03-01T06:25:54;102274.00;;;-2.30
37536;BMP180;23379;51.554;6.736;2023-03-01T06:28:19;102297.00;;;-2.20
37536;BMP180;23379;51.554;6.736;2023-03-01T06:30:45;102274.00;;;-2.20
37536;BMP180;23379;51.554;6.736;2023-03-01T06:33:11;102324.00;;;-2.20
37536;BMP180;23379;51.554;6.736;2023-03-01T06:35:36;102268.00;;;-2.40
37536;BMP180;23379;51.554;6.736;2023-03-01T06:38:03;102272.00;;;-2.10
37536;BMP180;23379;51.554;6.736;2023-03-01T06:40:29;102279.00;;;-2.10
37536;BMP180;23379;51.554;6.736;2023-03-01T06:42:56;102288.00;;;-2.00
37536;BMP180;23379;51.554;6.736;2023-03-01T06:45:22;102332.00;;;-2.10
37536;BMP180;23379;51.554;6.736;2023-03-01T06:47:48;102298.00;;;-1.90
37536;BMP180;23379;51.554;6.736;2023-03-01T06:50:17;102268.00;;;-1.70
37536;BMP180;23379;51.554;6.736;2023-03-01T06:52:43;102295.00;;;-1.70
37536;BMP180;23379;51.554;6.736;2023-03-01T06:55:11;102261.00;;;-1.80
37536;BMP180;23379;51.554;6.736;2023-03-01T06:57:36;102302.00;;;-1.70
37536;BMP180;23379;51.554;6.736;2023-03-01T07:00:03;102299.00;;;-1.50
37536;BMP180;23379;51.554;6.736;2023-03-01T07:02:29;102313.00;;;-1.80
37536;BMP180;23379;51.554;6.736;2023-03-01T07:04:54;102286.00;;;-1.70
37536;BMP180;23379;51.554;6.736;2023-03-01T07:07:20;102305.00;;;-1.50
37536;BMP180;23379;51.554;6.736;2023-03-01T07:09:45;102339.00;;;-1.50
37536;BMP180;23379;51.554;6.736;2023-03-01T07:12:11;102292.00;;;-1.50
37536;BMP180;23379;51.554;6.736;2023-03-01T07:14:36;102312.00;;;-1.40
37536;BMP180;23379;51.554;6.736;2023-03-01T07:17:02;102325.00;;;-1.40
37536;BMP180;23379;51.554;6.736;2023-03-01T07:19:27;102333.00;;;-1.30
37536;BMP180;23379;51.554;6.736;2023-03-01T07:21:52;102301.00;;;-0.80
37536;BMP180;23379;51.554;6.736;2023-03-01T07:24:18;102333.00;;;-1.00
37536;BMP180;23379;51.554;6.736;2023-03-01T07:26:43;102340.00;;;-0.80
37536;BMP180;23379;51.554;6.736;2023-03-01T07:29:10;102334.00;;;-0.80
37536;BMP180;23379;51.554;6.736;2023-03-01T07:31:35;102335.00;;;-0.60
37536;BMP180;23379;51.554;6.736;2023-03-01T07:34:02;102335.00;;;-0.50
37536;BMP180;23379;51.554;6.736;2023-03-01T07:36:27;102323.00;;;-0.40
37536;BMP180;23379;51.554;6.736;2023-03-01T07:38:52;102334.00;;;0.00
37536;BMP180;23379;51.554;6.736;2023-03-01T07:41:18;102312.00;;;0.00
37536;BMP180;23379;51.554;6.736;2023-03-01T07:43:43;102317.00;;;0.10
37536;BMP180;23379;51.554;6.736;2023-03-01T07:46:09;102319.00;;;0.30
37536;BMP180;23379;51.554;6.736;2023-03-01T07:48:34;102312.00;;;0.20
37536;BMP180;23379;51.554;6.736;2023-03-01T07:51:03;102336.00;;;0.50
37536;BMP180;23379;51.554;6.736;2023-03-01T07:53:28;102330.00;;;0.50
37536;BMP180;23379;51.554;6.736;2023-03-01T07:56:04;102329.00;;;0.70
37536;BMP180;23379;51.554;6.736;2023-03-01T07:58:30;102329.00;;;1.00
37536;BMP180;23379;51.554;6.736;2023-03-01T08:00:56;102320.00;;;1.30
37536;BMP180;23379;51.554;6.736;2023-03-01T08:03:21;102321.00;;;1.40
37536;BMP180;23379;51.554;6.736;2023-03-01T08:05:46;102301.00;;;1.70
37536;BMP180;23379;51.554;6.736;2023-03-01T08:08:12;102322.00;;;2.30
37536;BMP180;23379;51.554;6.736;2023-03-01T08:10:37;102285.00;;;3.60
37536;BMP180;23379;51.554;6.736;2023-03-01T08:13:02;102306.00;;;4.90
37536;BMP180;23379;51.554;6.736;2023-03-01T08:15:28;102302.00;;;6.30
37536;BMP180;23379;51.554;6.736;2023-03-01T08:17:53;102328.00;;;6.80
37536;BMP180;23379;51.554;6.736;2023-03-01T08:20:18;102307.00;;;7.50
37536;BMP180;23379;51.554;6.736;2023-03-01T08:22:44;102301.00;;;7.50
37536;BMP180;23379;51.554;6.736;2023-03-01T08:25:09;102315.00;;;8.70
37536;BMP180;23379;51.554;6.736;2023-03-01T08:27:35;102309.00;;;8.20
37536;BMP180;23379;51.554;6.736;2023-03-01T08:30:00;102308.00;;;9.40
37536;BMP180;23379;51.554;6.736;2023-03-01T08:32:25;102313.00;;;9.90
37536;BMP180;23379;51.554;6.736;2023-03-01T08:34:51;102315.00;;;10.40
37536;BMP180;23379;51.554;6.736;2023-03-01T08:37:16;102312.00;;;9.70
37536;BMP180;23379;51.554;6.736;2023-03-01T08:39:41;102294.00;;;10.10
37536;BMP180;23379;51.554;6.736;2023-03-01T08:42:07;102314.00;;;11.40
37536;BMP180;23379;51.554;6.736;2023-03-01T08:44:32;102304.00;;;10.60
37536;BMP180;23379;51.554;6.736;2023-03-01T08:46:58;102289.00;;;10.00
37536;BMP180;23379;51.554;6.736;2023-03-01T08:49:25;102298.00;;;10.60
37536;BMP180;23379;51.554;6.736;2023-03-01T08:51:50;102298.00;;;11.00
37536;BMP180;23379;51.554;6.736;2023-03-01T08:54:18;102308.00;;;12.50
37536;BMP180;23379;51.554;6.736;2023-03-01T08:56:44;102315.00;;;12.00
37536;BMP180;23379;51.554;6.736;2023-03-01T08:59:11;102306.00;;;11.50
37536;BMP180;23379;51.554;6.736;2023-03-01T09:01:36;102303.00;;;12.00
37536;BMP180;23379;51.554;6.736;2023-03-01T09:04:02;102308.00;;;12.10
37536;BMP180;23379;51.554;6.736;2023-03-01T09:06:31;102319.00;;;11.90
37536;BMP180;23379;51.554;6.736;2023-03-01T09:08:58;102306.00;;;13.00
37536;BMP180;23379;51.554;6.736;2023-03-01T09:11:23;102299.00;;;12.90
37536;BMP180;23379;51.554;6.736;2023-03-01T09:13:49;102297.00;;;12.20
37536;BMP180;23379;51.554;6.736;2023-03-01T09:16:18;102307.00;;;12.30
37536;BMP180;23379;51.554;6.736;2023-03-01T09:18:44;102292.00;;;12.20
37536;BMP180;23379;51.554;6.736;2023-03-01T09:21:13;102282.00;;;13.00
37536;BMP180;23379;51.554;6.736;2023-03-01T09:23:44;102256.00;;;12.00
37536;BMP180;23379;51.554;6.736;2023-03-01T09:26:12;102293.00;;;11.20
37536;BMP180;23379;51.554;6.736;2023-03-01T09:28:39;102297.00;;;11.40
37536;BMP180;23379;51.554;6.736;2023-03-01T09:31:05;102263.00;;;13.10
37536;BMP180;23379;51.554;6.736;2023-03-01T09:33:32;102290.00;;;13.00
37536;BMP180;23379;51.554;6.736;2023-03-01T09:36:02;102278.00;;;12.80
37536;BMP180;23379;51.554;6.736;2023-03-01T09:38:28;102289.00;;;12.10
37536;BMP180;23379;51.554;6.736;2023-03-01T09:40:53;102245.00;;;11.50
37536;BMP180;23379;51.554;6.736;2023-03-01T09:43:30;102285.00;;;12.10
37536;BMP180;23379;51.554;6.736;2023-03-01T09:46:04;102271.00;;;13.00
37536;BMP180;23379;51.554;6.736;2023-03-01T09:48:38;102286.00;;;12.60
37536;BMP180;23379;51.554;6.736;2023-03-01T09:51:09;102285.00;;;12.80
37536;BMP180;23379;51.554;6.736;2023-03-01T09:53:37;102261.00;;;11.50
37536;BMP180;23379;51.554;6.736;2023-03-01T09:56:29;102257.00;;;13.00
37536;BMP180;23379;51.554;6.736;2023-03-01T10:09:33;102244.00;;;14.00
37536;BMP180;23379;51.554;6.736;2023-03-01T10:12:00;102244.00;;;13.30
37536;BMP180;23379;51.554;6.736;2023-03-01T10:17:06;102234.00;;;13.80
37536;BMP180;23379;51.554;6.736;2023-03-01T10:19:40;102252.00;;;13.90
37536;BMP180;23379;51.554;6.736;2023-03-01T10:24:35;102232.00;;;14.10
37536;BMP180;23379;51.554;6.736;2023-03-01T10:27:07;102232.00;;;12.00
37536;BMP180;23379;51.554;6.736;2023-03-01T10:29:43;102243.00;;;13.20
37536;BMP180;23379;51.554;6.736;2023-03-01T10:32:11;102233.00;;;15.00
37536;BMP180;23379;51.554;6.736;2023-03-01T10:34:36;102214.00;;;14.20
37536;BMP180;23379;51.554;6.736;2023-03-01T10:37:13;102221.00;;;14.80
37536;BMP180;23379;51.554;6.736;2023-03-01T10:39:58;102225.00;;;16.30
37536;BMP180;23379;51.554;6.736;2023-03-01T10:42:28;102231.00;;;15.00
37536;BMP180;23379;51.554;6.736;2023-03-01T10:45:23;102208.00;;;14.40
37536;BMP180;23379;51.554;6.736;2023-03-01T10:48:16;102232.00;;;14.20
37536;BMP180;23379;51.554;6.736;2023-03-01T10:53:40;102230.00;;;15.90
37536;BMP180;23379;51.554;6.736;2023-03-01T10:56:11;102205.00;;;15.90
37536;BMP180;23379;51.554;6.736;2023-03-01T10:58:41;102190.00;;;12.30
37536;BMP180;23379;51.554;6.736;2023-03-01T11:03:41;102191.00;;;11.70
37536;BMP180;23379;51.554;6.736;2023-03-01T11:08:44;102170.00;;;12.60
37536;BMP180;23379;51.554;6.736;2023-03-01T11:16:31;102183.00;;;13.20
37536;BMP180;23379;51.554;6.736;2023-03-01T11:19:00;102185.00;;;14.00
37536;BMP180;23379;51.554;6.736;2023-03-01T11:21:28;102177.00;;;13.70
37536;BMP180;23379;51.554;6.736;2023-03-01T11:23:54;102200.00;;;13.20
37536;BMP180;23379;51.554;6.736;2023-03-01T11:26:20;102182.00;;;14.10
37536;BMP180;23379;51.554;6.736;2023-03-01T11:28:51;102166.00;;;13.00
37536;BMP180;23379;51.554;6.736;2023-03-01T11:31:18;102189.00;;;14.70
37536;BMP180;23379;51.554;6.736;2023-03-01T11:36:19;102191.00;;;14.50
37536;BMP180;23379;51.554;6.736;2023-03-01T11:38:49;102199.00;;;15.90
37536;BMP180;23379;51.554;6.736;2023-03-01T11:41:21;102180.00;;;14.60
37536;BMP180;23379;51.554;6.736;2023-03-01T11:43:59;102166.00;;;14.70
37536;BMP180;23379;51.554;6.736;2023-03-01T12:11:43;102177.00;;;16.00
37536;BMP180;23379;51.554;6.736;2023-03-01T12:17:17;102168.00;;;16.30
37536;BMP180;23379;51.554;6.736;2023-03-01T12:41:48;102122.00;;;14.40
37536;BMP180;23379;51.554;6.736;2023-03-01T12:49:51;102122.00;;;14.80
37536;BMP180;23379;51.554;6.736;2023-03-01T12:52:51;102108.00;;;15.60
37536;BMP180;23379;51.554;6.736;2023-03-01T12:58:28;102071.00;;;13.10
37536;BMP180;23379;51.554;6.736;2023-03-01T13:09:37;102106.00;;;14.20
37536;BMP180;23379;51.554;6.736;2023-03-01T13:15:38;102102.00;;;14.40
37536;BMP180;23379;51.554;6.736;2023-03-01T13:20:55;102101.00;;;14.30
37536;BMP180;23379;51.554;6.736;2023-03-01T13:30:57;102074.00;;;14.00
37536;BMP180;23379;51.554;6.736;2023-03-01T13:35:51;102062.00;;;14.10
37536;BMP180;23379;51.554;6.736;2023-03-01T13:38:46;102066.00;;;14.00
37536;BMP180;23379;51.554;6.736;2023-03-01T13:41:13;102068.00;;;13.80
37536;BMP180;23379;51.554;6.736;2023-03-01T13:43:41;102059.00;;;13.00
37536;BMP180;23379;51.554;6.736;2023-03-01T13:46:20;102037.00;;;13.40
37536;BMP180;23379;51.554;6.736;2023-03-01T13:48:50;102052.00;;;12.40
37536;BMP180;23379;51.554;6.736;2023-03-01T13:51:22;102026.00;;;13.60
37536;BMP180;23379;51.554;6.736;2023-03-01T13:53:48;102046.00;;;12.60
37536;BMP180;23379;51.554;6.736;2023-03-01T13:56:27;102046.00;;;14.20
37536;BMP180;23379;51.554;6.736;2023-03-01T13:58:58;102027.00;;;14.50
37536;BMP180;23379;51.554;6.736;2023-03-01T14:01:32;102025.00;;;15.80
37536;BMP180;23379;51.554;6.736;2023-03-01T14:03:59;102015.00;;;15.50
37536;BMP180;23379;51.554;6.736;2023-03-01T14:06:30;102017.00;;;14.20
37536;BMP180;23379;51.554;6.736;2023-03-01T14:09:20;102017.00;;;12.90
37536;BMP180;23379;51.554;6.736;2023-03-01T14:19:34;102013.00;;;13.50
37536;BMP180;23379;51.554;6.736;2023-03-01T14:24:27;101973.00;;;12.80
37536;BMP180;23379;51.554;6.736;2023-03-01T14:26:53;102001.00;;;12.20
37536;BMP180;23379;51.554;6.736;2023-03-01T14:29:35;102004.00;;;12.00
37536;BMP180;23379;51.554;6.736;2023-03-01T14:32:24;102004.00;;;11.20
37536;BMP180;23379;51.554;6.736;2023-03-01T14:34:50;102001.00;;;11.00
37536;BMP180;23379;51.554;6.736;2023-03-01T14:39:41;101957.00;;;11.70
37536;BMP180;23379;51.554;6.736;2023-03-01T14:42:06;101988.00;;;10.40
37536;BMP180;23379;51.554;6.736;2023-03-01T14:44:32;101950.00;;;9.70
37536;BMP180;23379;51.554;6.736;2023-03-01T14:47:02;101998.00;;;9.40
37536;BMP180;23379;51.554;6.736;2023-03-01T14:49:30;102000.00;;;9.00
37536;BMP180;23379;51.554;6.736;2023-03-01T14:52:05;101990.00;;;9.00
37536;BMP180;23379;51.554;6.736;2023-03-01T14:54:42;101997.00;;;8.80
37536;BMP180;23379;51.554;6.736;2023-03-01T14:57:22;101981.00;;;8.50
37536;BMP180;23379;51.554;6.736;2023-03-01T14:59:55;101984.00;;;8.40
37536;BMP180;23379;51.554;6.736;2023-03-01T15:02:24;101967.00;;;8.70
37536;BMP180;23379;51.554;6.736;2023-03-01T15:04:52;101963.00;;;8.70
37536;BMP180;23379;51.554;6.736;2023-03-01T15:07:19;101943.00;;;8.00
37536;BMP180;23379;51.554;6.736;2023-03-01T15:09:45;101944.00;;;7.80
37536;BMP180;23379;51.554;6.736;2023-03-01T15:14:52;101962.00;;;7.70
37536;BMP180;23379;51.554;6.736;2023-03-01T15:17:34;101968.00;;;7.80
37536;BMP180;23379;51.554;6.736;2023-03-01T15:20:03;101942.00;;;7.80
37536;BMP180;23379;51.554;6.736;2023-03-01T15:22:29;101924.00;;;7.60
37536;BMP180;23379;51.554;6.736;2023-03-01T15:24:55;101967.00;;;7.50
37536;BMP180;23379;51.554;6.736;2023-03-01T15:27:22;101940.00;;;7.50
37536;BMP180;23379;51.554;6.736;2023-03-01T15:30:00;101948.00;;;7.40
37536;BMP180;23379;51.554;6.736;2023-03-01T15:34:52;101959.00;;;7.30
37536;BMP180;23379;51.554;6.736;2023-03-01T15:42:42;101956.00;;;7.10
37536;BMP180;23379;51.554;6.736;2023-03-01T15:47:47;101926.00;;;7.10
37536;BMP180;23379;51.554;6.736;2023-03-01T15:50:26;101963.00;;;7.20
37536;BMP180;23379;51.554;6.736;2023-03-01T15:52:53;101947.00;;;7.00
37536;BMP180;23379;51.554;6.736;2023-03-01T15:55:20;101945.00;;;6.90
37536;BMP180;23379;51.554;6.736;2023-03-01T15:57:46;101947.00;;;6.90
37536;BMP180;23379;51.554;6.736;2023-03-01T16:00:13;101928.00;;;6.90
37536;BMP180;23379;51.554;6.736;2023-03-01T16:02:40;101919.00;;;6.80
37536;BMP180;23379;51.554;6.736;2023-03-01T16:05:12;101950.00;;;6.70
37536;BMP180;23379;51.554;6.736;2023-03-01T16:07:40;101927.00;;;6.80
37536;BMP180;23379;51.554;6.736;2023-03-01T16:10:05;101891.00;;;7.00
37536;BMP180;23379;51.554;6.736;2023-03-01T16:12:31;101942.00;;;7.00
37536;BMP180;23379;51.554;6.736;2023-03-01T16:14:56;101915.00;;;6.70
37536;BMP180;23379;51.554;6.736;2023-03-01T16:17:22;101845.00;;;6.90
37536;BMP180;23379;51.554;6.736;2023-03-01T16:19:48;101878.00;;;7.20
37536;BMP180;23379;51.554;6.736;2023-03-01T16:22:13;101948.00;;;6.90
37536;BMP180;23379;51.554;6.736;2023-03-01T16:24:39;101936.00;;;6.70
37536;BMP180;23379;51.554;6.736;2023-03-01T16:27:05;101861.00;;;6.70
37536;BMP180;23379;51.554;6.736;2023-03-01T16:29:31;101877.00;;;6.60
37536;BMP180;23379;51.554;6.736;2023-03-01T16:31:56;101898.00;;;6.50
37536;BMP180;23379;51.554;6.736;2023-03-01T16:34:21;101820.00;;;6.40
37536;BMP180;23379;51.554;6.736;2023-03-01T16:36:47;101885.00;;;6.30
37536;BMP180;23379;51.554;6.736;2023-03-01T16:39:12;101931.00;;;6.10